createdAt,value
2022-09-23T00:02:12.422Z,12.57
2022-09-23T00:05:15.967Z,13.35
2022-09-23T00:08:19.097Z,13.82
2022-09-23T00:11:26.592Z,12.07
2022-09-23T00:14:29.712Z,12.68
2022-09-23T00:17:33.360Z,12.88
2022-09-23T00:20:37.777Z,13.40
2022-09-23T00:23:42.856Z,12.68
2022-09-23T00:26:46.023Z,14.60
2022-09-23T00:29:49.385Z,12.05
2022-09-23T00:32:53.092Z,11.45
2022-09-23T00:36:04.013Z,13.30
2022-09-23T00:39:07.148Z,13.15
2022-09-23T00:42:16.355Z,12.97
2022-09-23T00:45:20.052Z,11.20
2022-09-23T00:48:23.230Z,11.60
2022-09-23T00:51:37.119Z,11.60
2022-09-23T00:54:41.360Z,11.90
2022-09-23T00:57:47.345Z,12.00
2022-09-23T01:00:50.559Z,14.25
2022-09-23T01:03:55.593Z,12.82
2022-09-23T01:06:58.799Z,13.52
2022-09-23T01:10:02.984Z,12.73
2022-09-23T01:13:42.902Z,12.43
2022-09-23T01:17:08.879Z,11.90
2022-09-23T01:20:24.359Z,12.82
2022-09-23T01:23:49.259Z,11.93
2022-09-23T01:27:32.737Z,14.85
2022-09-23T01:30:45.043Z,15.23
2022-09-23T01:34:06.156Z,13.13
2022-09-23T01:37:26.356Z,10.48
2022-09-23T01:40:52.066Z,13.48
2022-09-23T01:44:10.057Z,11.63
2022-09-23T01:47:20.859Z,11.90
2022-09-23T01:50:48.547Z,11.98
2022-09-23T01:53:58.114Z,12.52
2022-09-23T01:57:07.007Z,11.82
2022-09-23T02:00:14.224Z,16.25
2022-09-23T02:03:27.821Z,12.87
2022-09-23T02:06:42.047Z,14.45
2022-09-23T02:09:53.952Z,10.57
2022-09-23T02:13:04.210Z,12.13
2022-09-23T02:16:26.233Z,16.73
2022-09-23T02:19:47.886Z,13.57
2022-09-23T02:23:14.805Z,13.52
2022-09-23T02:26:59.345Z,12.88
2022-09-23T02:30:08.971Z,14.88
2022-09-23T02:33:39.371Z,14.43
2022-09-23T02:37:15.508Z,14.33
2022-09-23T02:40:38.759Z,16.77
2022-09-23T02:44:00.791Z,19.17
2022-09-23T02:47:04.027Z,18.80
2022-09-23T02:50:09.320Z,21.10
2022-09-23T02:53:12.480Z,16.73
2022-09-23T02:56:20.974Z,15.70
2022-09-23T02:59:24.716Z,16.98
2022-09-23T03:03:03.022Z,17.27
2022-09-23T03:06:29.037Z,15.38
2022-09-23T03:09:37.702Z,14.07
2022-09-23T03:12:41.168Z,15.90
2022-09-23T03:16:11.148Z,13.57
2022-09-23T03:19:34.648Z,17.83
2022-09-23T03:22:47.014Z,20.20
2022-09-23T03:25:54.207Z,15.50
2022-09-23T03:28:58.739Z,16.85
2022-09-23T03:32:02.479Z,20.90
2022-09-23T03:35:06.625Z,24.80
2022-09-23T03:38:17.316Z,18.17
2022-09-23T03:41:31.243Z,16.10
2022-09-23T03:44:39.325Z,19.17
2022-09-23T03:47:42.461Z,19.13
2022-09-23T03:50:45.577Z,15.90
2022-09-23T03:53:48.668Z,17.33
2022-09-23T03:56:51.991Z,18.03
2022-09-23T03:59:55.044Z,21.50
2022-09-23T04:02:58.224Z,20.13
2022-09-23T04:06:01.568Z,19.42
2022-09-23T04:09:05.071Z,21.42
2022-09-23T04:12:11.800Z,21.30
2022-09-23T04:15:15.028Z,16.85
2022-09-23T04:18:18.528Z,17.77
2022-09-23T04:21:22.115Z,19.83
2022-09-23T04:24:25.259Z,17.45
2022-09-23T04:27:28.376Z,17.27
2022-09-23T04:30:31.467Z,13.90
2022-09-23T04:33:39.935Z,16.45
2022-09-23T04:36:47.380Z,16.50
2022-09-23T04:39:50.607Z,16.58
2022-09-23T04:42:53.723Z,16.50
2022-09-23T04:46:02.356Z,16.25
2022-09-23T04:49:06.831Z,18.17
2022-09-23T04:52:09.991Z,21.33
2022-09-23T04:55:13.047Z,18.73
2022-09-23T04:58:16.168Z,18.63
2022-09-23T05:01:27.148Z,21.98
2022-09-23T05:04:31.440Z,21.02
2022-09-23T05:07:35.456Z,16.92
2022-09-23T05:10:38.565Z,16.13
2022-09-23T05:13:41.726Z,20.40
2022-09-23T05:16:44.908Z,18.17
2022-09-23T05:19:48.050Z,19.58
2022-09-23T05:22:55.563Z,13.30
2022-09-23T05:26:07.368Z,15.43
2022-09-23T05:29:11.337Z,21.60
2022-09-23T05:32:15.325Z,23.02
2022-09-23T05:35:18.590Z,22.60
2022-09-23T05:38:21.718Z,20.65
2022-09-23T05:41:26.375Z,20.42
2022-09-23T05:44:29.854Z,22.87
2022-09-23T05:47:33.069Z,18.40
2022-09-23T05:50:36.229Z,20.17
2022-09-23T05:53:40.732Z,13.32
2022-09-23T05:56:44.004Z,11.18
2022-09-23T05:59:47.800Z,10.27
2022-09-23T06:02:51.050Z,15.30
2022-09-23T06:05:55.286Z,11.55
2022-09-23T06:08:59.402Z,7.95
2022-09-23T06:12:04.937Z,10.60
2022-09-23T06:15:09.091Z,10.27
2022-09-23T06:18:12.928Z,8.85
2022-09-23T06:21:17.321Z,12.38
2022-09-23T06:24:23.746Z,8.57
2022-09-23T06:27:29.271Z,9.85
2022-09-23T06:30:34.823Z,9.50
2022-09-23T06:33:37.976Z,9.95
2022-09-23T06:36:45.342Z,12.73
2022-09-23T06:39:49.187Z,10.60
2022-09-23T06:42:59.715Z,8.50
2022-09-23T06:46:04.916Z,8.60
2022-09-23T06:49:08.164Z,8.57
2022-09-23T06:52:11.378Z,7.43
2022-09-23T06:55:15.061Z,7.80
2022-09-23T06:58:18.340Z,9.02
2022-09-23T07:01:22.375Z,7.00
2022-09-23T07:04:29.209Z,8.45
2022-09-23T07:07:32.654Z,6.43
2022-09-23T07:10:37.157Z,9.13
2022-09-23T07:13:42.074Z,7.43
2022-09-23T07:16:50.573Z,5.50
2022-09-23T07:19:54.977Z,6.80
2022-09-23T07:23:00.606Z,10.40
2022-09-23T07:26:04.387Z,9.05
2022-09-23T07:29:08.094Z,9.18
2022-09-23T07:32:14.550Z,7.10
2022-09-23T07:35:18.094Z,6.85
2022-09-23T07:38:24.743Z,8.18
2022-09-23T07:41:29.047Z,6.55
2022-09-23T07:44:32.881Z,6.95
2022-09-23T07:47:36.398Z,7.83
2022-09-23T07:50:40.378Z,9.18
2022-09-23T07:53:46.949Z,5.97
2022-09-23T07:56:50.161Z,9.30
2022-09-23T07:59:53.408Z,7.68
2022-09-23T08:02:56.691Z,6.93
2022-09-23T08:06:10.138Z,6.72
2022-09-23T08:09:13.833Z,6.18
2022-09-23T08:12:19.266Z,6.57
2022-09-23T08:15:28.335Z,6.68
2022-09-23T08:18:31.712Z,5.33
2022-09-23T08:21:35.198Z,6.55
2022-09-23T08:24:38.496Z,5.35
2022-09-23T08:27:41.525Z,7.00
2022-09-23T08:30:48.046Z,6.05
2022-09-23T08:33:58.695Z,8.33
2022-09-23T08:37:01.842Z,7.90
2022-09-23T08:40:05.527Z,6.20
2022-09-23T08:43:17.989Z,6.93
2022-09-23T08:47:05.195Z,6.43
2022-09-23T08:50:20.409Z,11.37
2022-09-23T08:53:38.009Z,11.00
2022-09-23T08:56:44.371Z,7.63
2022-09-23T08:59:49.299Z,14.95
2022-09-23T09:02:55.657Z,15.70
2022-09-23T09:05:59.388Z,11.77
2022-09-23T09:09:06.256Z,9.77
2022-09-23T09:12:19.444Z,6.53
2022-09-23T09:15:27.347Z,12.40
2022-09-23T09:18:34.230Z,6.22
2022-09-23T09:21:42.509Z,6.47
2022-09-23T09:24:49.216Z,10.55
2022-09-23T09:27:53.751Z,8.50
2022-09-23T09:31:36.110Z,9.40
2022-09-23T09:34:47.400Z,6.28
2022-09-23T09:37:53.239Z,10.97
2022-09-23T09:41:08.611Z,11.23
2022-09-23T09:44:44.970Z,12.50
2022-09-23T09:48:10.863Z,8.95
2022-09-23T09:51:22.307Z,23.45
2022-09-23T09:54:26.924Z,10.03
2022-09-23T09:57:36.821Z,7.95
2022-09-23T10:00:45.696Z,6.38
2022-09-23T10:03:53.195Z,9.65
2022-09-23T10:07:09.850Z,6.20
2022-09-23T10:10:33.835Z,6.00
2022-09-23T10:13:38.007Z,8.77
2022-09-23T10:16:42.418Z,7.00
2022-09-23T10:20:00.824Z,7.35
2022-09-23T10:23:14.261Z,7.03
2022-09-23T10:26:18.473Z,8.33
2022-09-23T10:29:32.900Z,7.10
2022-09-23T10:32:43.273Z,5.63
2022-09-23T10:35:57.236Z,7.90
2022-09-23T10:39:23.919Z,10.52
2022-09-23T10:43:25.535Z,10.43
2022-09-23T10:46:41.260Z,11.68
2022-09-23T10:50:03.703Z,7.05
2022-09-23T10:53:09.661Z,8.25
2022-09-23T10:56:34.980Z,8.25
2022-09-23T10:59:49.885Z,10.53
2022-09-23T11:02:58.991Z,8.48
2022-09-23T11:06:05.138Z,9.13
2022-09-23T11:09:41.235Z,6.05
2022-09-23T11:13:15.702Z,9.65
2022-09-23T11:16:39.071Z,11.03
2022-09-23T11:20:10.745Z,9.60
2022-09-23T11:23:43.149Z,7.35
2022-09-23T11:27:07.874Z,5.75
2022-09-23T11:30:16.314Z,8.85
2022-09-23T11:33:42.097Z,7.60
2022-09-23T11:36:56.391Z,8.05
2022-09-23T11:40:15.556Z,14.93
2022-09-23T11:43:21.700Z,7.00
2022-09-23T11:46:31.935Z,6.15
2022-09-23T11:49:43.188Z,7.60
2022-09-23T11:53:02.101Z,11.50
2022-09-23T11:56:33.348Z,9.10
2022-09-23T11:59:56.539Z,6.97
2022-09-23T12:03:40.562Z,7.15
2022-09-23T12:06:55.564Z,13.43
2022-09-23T12:10:06.681Z,9.93
2022-09-23T12:13:17.991Z,6.70
2022-09-23T12:16:39.025Z,7.72
2022-09-23T12:19:45.570Z,7.85
2022-09-23T12:23:04.056Z,6.83
2022-09-23T12:26:14.464Z,6.03
2022-09-23T12:29:17.957Z,12.00
2022-09-23T12:32:21.572Z,8.35
2022-09-23T12:35:35.923Z,6.97
2022-09-23T12:38:46.477Z,4.90
2022-09-23T12:42:02.421Z,7.78
2022-09-23T12:45:40.389Z,10.50
2022-09-23T12:48:47.851Z,11.43
2022-09-23T12:52:12.516Z,5.43
2022-09-23T12:55:24.286Z,5.50
2022-09-23T12:58:58.633Z,6.18
2022-09-23T13:02:24.453Z,5.65
2022-09-23T13:05:46.974Z,6.60
2022-09-23T13:08:50.432Z,5.90
2022-09-23T13:11:57.729Z,6.90
2022-09-23T13:15:06.204Z,5.47
2022-09-23T13:18:24.990Z,6.97
2022-09-23T13:21:43.158Z,9.63
2022-09-23T13:24:54.465Z,8.20
2022-09-23T13:28:01.220Z,7.37
2022-09-23T13:31:06.889Z,9.43
2022-09-23T13:34:15.305Z,6.53
2022-09-23T13:37:22.993Z,10.63
2022-09-23T13:40:29.178Z,6.63
2022-09-23T13:43:40.961Z,6.60
2022-09-23T13:46:50.168Z,9.02
2022-09-23T13:49:59.909Z,8.77
2022-09-23T13:53:11.451Z,6.43
2022-09-23T13:56:15.834Z,8.02
2022-09-23T13:59:26.805Z,6.50
2022-09-23T14:02:29.969Z,5.45
2022-09-23T14:05:35.890Z,5.30
2022-09-23T14:08:42.978Z,6.07
2022-09-23T14:11:46.140Z,7.43
2022-09-23T14:14:51.770Z,5.30
2022-09-23T14:18:06.300Z,6.05
2022-09-23T14:21:34.927Z,6.03
2022-09-23T14:24:39.049Z,8.38
2022-09-23T14:27:43.596Z,5.80
2022-09-23T14:30:48.453Z,5.03
2022-09-23T14:33:51.610Z,5.28
2022-09-23T14:37:13.338Z,8.27
2022-09-23T14:40:20.863Z,5.75
2022-09-23T14:43:29.083Z,8.43
2022-09-23T14:46:37.924Z,4.70
2022-09-23T14:50:08.448Z,4.97
2022-09-23T14:53:23.791Z,7.25
2022-09-23T14:56:27.033Z,5.07
2022-09-23T14:59:36.087Z,5.30
2022-09-23T15:02:45.322Z,7.83
2022-09-23T15:05:51.048Z,6.15
2022-09-23T15:08:55.819Z,8.00
2022-09-23T15:12:08.356Z,5.55
2022-09-23T15:15:19.684Z,5.30
2022-09-23T15:18:27.793Z,5.83
2022-09-23T15:21:42.530Z,5.90
2022-09-23T15:24:46.461Z,7.18
2022-09-23T15:28:06.248Z,8.75
2022-09-23T15:31:20.738Z,7.03
2022-09-23T15:34:23.823Z,6.10
2022-09-23T15:37:26.986Z,7.18
2022-09-23T15:40:32.793Z,7.35
2022-09-23T15:43:36.082Z,5.40
2022-09-23T15:46:40.761Z,7.15
2022-09-23T15:49:47.157Z,6.83
2022-09-23T15:52:50.299Z,5.38
2022-09-23T15:55:54.155Z,6.20
2022-09-23T15:58:57.229Z,8.05
2022-09-23T16:02:06.720Z,6.20
2022-09-23T16:05:25.009Z,7.83
2022-09-23T16:08:29.243Z,7.43
2022-09-23T16:11:32.788Z,9.65
2022-09-23T16:14:35.864Z,8.82
2022-09-23T16:17:39.047Z,7.55
2022-09-23T16:20:47.681Z,10.47
2022-09-23T16:23:51.485Z,6.60
2022-09-23T16:26:59.880Z,6.07
2022-09-23T16:30:03.242Z,7.45
2022-09-23T16:33:06.428Z,7.95
2022-09-23T16:36:17.702Z,5.90
2022-09-23T16:39:22.790Z,6.93
2022-09-23T16:42:25.899Z,7.78
2022-09-23T16:45:29.052Z,5.63
2022-09-23T16:48:32.146Z,6.15
2022-09-23T16:51:38.545Z,6.57
2022-09-23T16:54:43.348Z,7.20
2022-09-23T16:57:46.513Z,8.18
2022-09-23T17:01:09.005Z,7.50
2022-09-23T17:04:13.544Z,6.88
2022-09-23T17:07:16.896Z,7.27
2022-09-23T17:10:21.434Z,9.27
2022-09-23T17:13:25.506Z,7.38
2022-09-23T17:16:31.805Z,8.60
2022-09-23T17:19:35.676Z,8.07
2022-09-23T17:22:38.867Z,7.93
2022-09-23T17:25:48.279Z,9.80
2022-09-23T17:28:54.324Z,7.32
2022-09-23T17:31:57.988Z,6.53
2022-09-23T17:35:04.640Z,7.82
2022-09-23T17:38:07.851Z,8.40
2022-09-23T17:41:11.546Z,8.38
2022-09-23T17:44:16.149Z,6.82
2022-09-23T17:47:19.303Z,8.98
2022-09-23T17:50:22.961Z,7.47
2022-09-23T17:53:26.362Z,8.43
2022-09-23T17:56:30.025Z,9.32
2022-09-23T17:59:33.262Z,7.10
2022-09-23T18:02:36.501Z,6.90
2022-09-23T18:05:39.650Z,7.85
2022-09-23T18:08:44.536Z,8.30
2022-09-23T18:11:49.674Z,6.88
2022-09-23T18:14:52.755Z,7.95
2022-09-23T18:17:55.827Z,8.43
2022-09-23T18:21:03.116Z,7.55
2022-09-23T18:24:30.719Z,6.57
2022-09-23T18:27:34.175Z,7.63
2022-09-23T18:30:37.368Z,9.98
2022-09-23T18:33:41.080Z,16.00
2022-09-23T18:36:44.724Z,12.98
2022-09-23T18:39:48.631Z,10.40
2022-09-23T18:42:51.830Z,8.40
2022-09-23T18:45:59.270Z,7.25
2022-09-23T18:49:21.227Z,6.50
2022-09-23T18:52:26.740Z,6.57
2022-09-23T18:55:33.039Z,12.70
2022-09-23T18:58:36.545Z,8.68
2022-09-23T19:01:39.805Z,10.45
2022-09-23T19:04:43.016Z,10.30
2022-09-23T19:07:46.168Z,9.77
2022-09-23T19:10:56.247Z,9.90
2022-09-23T19:14:03.337Z,9.27
2022-09-23T19:17:06.472Z,8.68
2022-09-23T19:20:10.218Z,11.65
2022-09-23T19:23:15.875Z,12.45
2022-09-23T19:26:26.775Z,11.23
2022-09-23T19:29:30.415Z,10.73
2022-09-23T19:32:34.718Z,9.32
2022-09-23T19:35:48.576Z,12.70
2022-09-23T19:38:54.699Z,9.70
2022-09-23T19:41:59.050Z,8.10
2022-09-23T19:45:02.135Z,8.98
2022-09-23T19:48:06.514Z,10.88
2022-09-23T19:51:09.696Z,9.63
2022-09-23T19:54:19.048Z,11.13
2022-09-23T19:57:22.241Z,9.80
2022-09-23T20:00:25.555Z,10.45
2022-09-23T20:03:28.662Z,10.27
2022-09-23T20:06:34.016Z,9.13
2022-09-23T20:09:37.171Z,9.45
2022-09-23T20:12:44.045Z,11.57
2022-09-23T20:15:48.358Z,11.18
2022-09-23T20:18:55.576Z,12.32
2022-09-23T20:22:17.148Z,11.63
2022-09-23T20:25:20.321Z,13.93
2022-09-23T20:28:27.339Z,9.53
2022-09-23T20:31:31.577Z,11.57
2022-09-23T20:34:34.829Z,10.50
2022-09-23T20:37:38.014Z,11.77
2022-09-23T20:40:41.210Z,9.93
2022-09-23T20:43:44.360Z,11.37
2022-09-23T20:46:48.979Z,10.82
2022-09-23T20:49:53.713Z,12.27
2022-09-23T20:52:57.623Z,9.90
2022-09-23T20:56:00.854Z,9.68
2022-09-23T20:59:05.247Z,8.27
2022-09-23T21:02:10.896Z,9.82
2022-09-23T21:05:15.127Z,9.90
2022-09-23T21:08:18.226Z,9.23
2022-09-23T21:11:22.200Z,8.90
2022-09-23T21:14:25.710Z,9.13
2022-09-23T21:17:28.858Z,10.98
2022-09-23T21:20:32.029Z,9.18
2022-09-23T21:23:38.175Z,11.88
2022-09-23T21:26:41.399Z,11.10
2022-09-23T21:29:44.703Z,9.87
2022-09-23T21:32:47.763Z,11.93
2022-09-23T21:35:57.847Z,10.88
2022-09-23T21:39:04.468Z,10.60
2022-09-23T21:42:07.673Z,13.45
2022-09-23T21:45:11.041Z,11.10
2022-09-23T21:48:14.169Z,12.48
2022-09-23T21:51:20.282Z,10.88
2022-09-23T21:54:23.932Z,11.73
2022-09-23T21:57:30.505Z,9.50
2022-09-23T22:00:33.822Z,10.70
2022-09-23T22:03:37.582Z,10.13
2022-09-23T22:06:41.151Z,9.05
2022-09-23T22:09:46.913Z,11.27
2022-09-23T22:12:50.058Z,8.85
2022-09-23T22:15:53.244Z,9.57
2022-09-23T22:18:58.304Z,8.93
2022-09-23T22:22:03.042Z,9.20
2022-09-23T22:25:06.532Z,18.98
2022-09-23T22:28:28.486Z,11.00
2022-09-23T22:31:50.442Z,10.73
2022-09-23T22:34:53.695Z,9.00
2022-09-23T22:37:57.106Z,10.10
2022-09-23T22:41:00.325Z,10.07
2022-09-23T22:44:03.740Z,9.25
2022-09-23T22:47:07.389Z,8.87
2022-09-23T22:50:11.361Z,9.73
2022-09-23T22:53:14.561Z,11.07
2022-09-23T22:56:17.748Z,9.98
2022-09-23T22:59:20.982Z,9.85
2022-09-23T23:02:24.109Z,8.80
2022-09-23T23:05:27.532Z,9.27
2022-09-23T23:08:31.784Z,9.98
2022-09-23T23:11:35.139Z,11.70
2022-09-23T23:14:38.324Z,10.02
2022-09-23T23:17:43.225Z,12.27
2022-09-23T23:20:46.401Z,10.18
2022-09-23T23:23:52.444Z,10.77
2022-09-23T23:26:55.740Z,10.68
2022-09-23T23:29:58.886Z,10.43
2022-09-23T23:33:02.207Z,9.53
2022-09-23T23:36:06.288Z,10.02
2022-09-23T23:39:09.849Z,11.68
2022-09-23T23:42:13.935Z,11.68
2022-09-23T23:45:17.395Z,10.90
2022-09-23T23:48:23.051Z,12.27
2022-09-23T23:51:27.469Z,11.00
2022-09-23T23:54:32.205Z,11.27
2022-09-23T23:57:35.376Z,10.63
